Time;durP1;ratioP1;P1;durP2;ratioP2;P2;SDS_P1;SDS_P2;PMS_P1;PMS_P2;Temp;Humidity;BMP_temperature;BMP_pressure;BME280_temperature;BME280_humidity;BME280_pressure;Samples;Min_cycle;Max_cycle;Signal;HPM_P1;HPM_P2
2023/10/06 00:02:14;;;;;;;5.95;3.40;;;;;;;;;;5015786;28;20109;-76
2023/10/06 00:04:41;;;;;;;7.97;3.42;;;;;;;;;;5008059;28;20029;-76
2023/10/06 00:07:08;;;;;;;9.15;4.15;;;;;;;;;;5015368;28;20061;-76
2023/10/06 00:09:35;;;;;;;9.75;3.53;;;;;;;;;;5015208;28;20041;-76
2023/10/06 00:12:03;;;;;;;5.03;3.25;;;;;;;;;;5014863;28;20537;-76
2023/10/06 00:14:48;;;;;;;6.88;3.13;;;;;;;;;;5013710;28;20087;-76
2023/10/06 00:17:18;;;;;;;7.00;3.13;;;;;;;;;;5012223;28;20033;-76
2023/10/06 00:19:44;;;;;;;8.13;3.45;;;;;;;;;;5013173;28;20029;-76
2023/10/06 00:22:17;;;;;;;10.10;3.38;;;;;;;;;;5015037;28;20893;-76
2023/10/06 00:24:50;;;;;;;8.68;3.70;;;;;;;;;;5014281;28;20542;-76
2023/10/06 00:27:24;;;;;;;7.00;3.23;;;;;;;;;;5009617;28;20044;-76
2023/10/06 00:29:56;;;;;;;6.50;3.20;;;;;;;;;;5013741;28;20058;-76
2023/10/06 00:32:22;;;;;;;6.68;3.40;;;;;;;;;;5015214;28;20041;-76
2023/10/06 00:34:54;;;;;;;6.13;2.92;;;;;;;;;;5014027;28;20030;-76
2023/10/06 00:37:22;;;;;;;9.82;3.38;;;;;;;;;;5012271;28;20155;-76
2023/10/06 00:39:50;;;;;;;7.43;3.33;;;;;;;;;;5017427;28;20034;-76
2023/10/06 00:42:18;;;;;;;6.88;3.17;;;;;;;;;;5010616;28;20073;-76
2023/10/06 00:44:46;;;;;;;8.55;3.63;;;;;;;;;;5012837;28;20080;-76
2023/10/06 00:47:15;;;;;;;6.85;3.13;;;;;;;;;;5010730;28;20668;-76
2023/10/06 00:49:43;;;;;;;10.10;3.20;;;;;;;;;;5012967;28;20030;-76
2023/10/06 00:52:11;;;;;;;10.18;3.58;;;;;;;;;;5015746;28;20543;-76
2023/10/06 00:54:39;;;;;;;7.25;3.38;;;;;;;;;;5035982;28;20037;-76
2023/10/06 00:57:10;;;;;;;8.68;3.20;;;;;;;;;;5017786;28;20030;-76
2023/10/06 00:59:36;;;;;;;6.03;3.40;;;;;;;;;;5023957;28;20052;-76
2023/10/06 01:02:02;;;;;;;9.40;3.13;;;;;;;;;;5034160;28;20100;-75
2023/10/06 01:04:34;;;;;;;6.90;3.13;;;;;;;;;;5029143;28;20106;-76
2023/10/06 01:07:00;;;;;;;8.13;3.00;;;;;;;;;;5017665;28;20040;-76
2023/10/06 01:09:33;;;;;;;6.72;3.03;;;;;;;;;;5015661;28;20037;-76
2023/10/06 01:11:58;;;;;;;10.50;3.45;;;;;;;;;;5018166;28;20044;-76
2023/10/06 01:14:27;;;;;;;6.60;3.22;;;;;;;;;;5016703;28;20033;-76
2023/10/06 01:17:08;;;;;;;6.43;3.22;;;;;;;;;;5031565;28;20040;-76
2023/10/06 01:19:34;;;;;;;8.93;3.30;;;;;;;;;;5015062;28;20590;-76
2023/10/06 01:24:44;;;;;;;9.10;3.00;;;;;;;;;;5016785;28;20072;-76
2023/10/06 01:27:11;;;;;;;7.03;3.30;;;;;;;;;;5013247;28;20559;-76
2023/10/06 01:29:37;;;;;;;9.55;3.63;;;;;;;;;;5014203;28;20072;-76
2023/10/06 01:32:05;;;;;;;9.05;3.70;;;;;;;;;;5018161;28;20064;-76
2023/10/06 01:34:38;;;;;;;6.90;3.22;;;;;;;;;;5016332;28;20084;-76
2023/10/06 01:37:05;;;;;;;6.00;2.85;;;;;;;;;;5010250;28;20030;-76
2023/10/06 01:39:32;;;;;;;7.72;3.08;;;;;;;;;;5014876;28;20045;-76
2023/10/06 01:42:04;;;;;;;6.00;2.95;;;;;;;;;;5014802;28;20034;-76
2023/10/06 01:44:34;;;;;;;7.28;2.78;;;;;;;;;;5017430;28;20163;-76
2023/10/06 01:47:00;;;;;;;9.98;3.10;;;;;;;;;;5014987;28;20118;-76
2023/10/06 01:49:26;;;;;;;7.55;2.85;;;;;;;;;;5012800;28;20157;-76
2023/10/06 01:51:52;;;;;;;7.63;3.38;;;;;;;;;;5014447;28;20049;-76
2023/10/06 01:54:19;;;;;;;7.25;2.90;;;;;;;;;;5018653;28;20038;-76
2023/10/06 01:56:46;;;;;;;7.60;3.00;;;;;;;;;;5014682;28;20034;-76
2023/10/06 01:59:14;;;;;;;6.93;3.42;;;;;;;;;;5017213;28;20022;-76
2023/10/06 02:01:41;;;;;;;10.00;3.28;;;;;;;;;;5017175;28;20025;-76
2023/10/06 02:04:11;;;;;;;8.05;3.00;;;;;;;;;;5013419;28;20037;-76
2023/10/06 02:06:43;;;;;;;6.50;2.90;;;;;;;;;;5012275;28;20045;-76
2023/10/06 02:09:14;;;;;;;8.20;3.22;;;;;;;;;;5009033;28;20033;-76
2023/10/06 02:11:41;;;;;;;8.07;3.00;;;;;;;;;;5016754;28;20037;-76
2023/10/06 02:14:09;;;;;;;9.38;2.88;;;;;;;;;;5014239;28;20526;-76
2023/10/06 02:16:35;;;;;;;9.00;2.97;;;;;;;;;;5013988;28;20042;-76
2023/10/06 02:19:02;;;;;;;6.93;3.08;;;;;;;;;;5017278;28;20646;-76
2023/10/06 02:21:29;;;;;;;4.90;2.65;;;;;;;;;;5034271;28;20064;-76
2023/10/06 02:24:03;;;;;;;7.88;2.50;;;;;;;;;;5021607;28;20094;-76
2023/10/06 02:26:28;;;;;;;9.43;3.10;;;;;;;;;;5024404;28;20038;-76
2023/10/06 02:28:55;;;;;;;5.95;2.90;;;;;;;;;;5020286;28;20696;-76
2023/10/06 02:31:21;;;;;;;6.25;2.90;;;;;;;;;;5031487;28;20918;-76
2023/10/06 02:33:51;;;;;;;5.45;2.72;;;;;;;;;;5030104;28;20038;-76
2023/10/06 02:36:21;;;;;;;7.18;2.88;;;;;;;;;;5013714;28;20044;-75
2023/10/06 02:38:50;;;;;;;6.57;2.92;;;;;;;;;;5014484;28;20034;-76
2023/10/06 02:41:21;;;;;;;7.70;2.90;;;;;;;;;;5016183;28;20029;-76
2023/10/06 02:43:51;;;;;;;7.10;3.25;;;;;;;;;;5012705;28;20076;-76
2023/10/06 02:46:23;;;;;;;6.55;3.10;;;;;;;;;;5016939;28;20419;-76
2023/10/06 02:48:50;;;;;;;9.02;3.20;;;;;;;;;;5025237;28;20120;-76
2023/10/06 02:51:30;;;;;;;7.88;2.78;;;;;;;;;;5010899;28;20041;-76
2023/10/06 02:56:46;;;;;;;6.60;2.95;;;;;;;;;;5013245;28;20042;-76
2023/10/06 02:59:21;;;;;;;8.75;3.10;;;;;;;;;;5016510;28;20064;-76
2023/10/06 03:01:52;;;;;;;8.25;2.90;;;;;;;;;;5014236;28;20061;-76
2023/10/06 03:04:21;;;;;;;7.97;3.30;;;;;;;;;;5010928;28;20046;-76
2023/10/06 03:06:57;;;;;;;7.45;2.80;;;;;;;;;;5014002;28;20057;-76
2023/10/06 03:09:44;;;;;;;6.80;2.47;;;;;;;;;;5015346;28;20049;-76
2023/10/06 03:12:15;;;;;;;8.25;3.28;;;;;;;;;;5013823;28;20042;-76
2023/10/06 03:14:42;;;;;;;8.73;2.85;;;;;;;;;;5011950;28;20134;-76
2023/10/06 03:17:09;;;;;;;6.43;2.70;;;;;;;;;;5016181;28;20029;-76
2023/10/06 03:19:41;;;;;;;7.65;2.90;;;;;;;;;;5015600;28;20049;-76
2023/10/06 03:22:12;;;;;;;7.13;2.95;;;;;;;;;;5014808;28;20546;-76
2023/10/06 03:24:58;;;;;;;8.52;2.67;;;;;;;;;;5014207;28;20091;-76
2023/10/06 03:27:25;;;;;;;9.35;3.08;;;;;;;;;;5011927;28;20072;-76
2023/10/06 03:30:02;;;;;;;4.57;2.88;;;;;;;;;;5014497;28;20129;-76
2023/10/06 03:32:38;;;;;;;8.52;3.25;;;;;;;;;;5016618;28;20120;-76
2023/10/06 03:37:51;;;;;;;8.13;3.00;;;;;;;;;;5014361;28;20119;-76
2023/10/06 03:40:30;;;;;;;8.75;2.90;;;;;;;;;;5014856;28;20052;-76
2023/10/06 03:42:56;;;;;;;5.13;2.75;;;;;;;;;;5013646;28;20041;-76
2023/10/06 03:45:32;;;;;;;7.72;3.10;;;;;;;;;;5014041;28;20057;-76
2023/10/06 03:48:13;;;;;;;9.35;3.00;;;;;;;;;;5023757;28;20034;-76
2023/10/06 03:50:43;;;;;;;6.93;2.92;;;;;;;;;;5032175;28;20034;-76
2023/10/06 03:53:11;;;;;;;6.90;3.20;;;;;;;;;;5018514;28;20063;-76
2023/10/06 03:55:45;;;;;;;6.03;2.67;;;;;;;;;;5017407;28;20045;-76
2023/10/06 03:58:14;;;;;;;5.97;3.00;;;;;;;;;;5010362;28;20778;-76
2023/10/06 04:00:47;;;;;;;7.88;2.90;;;;;;;;;;5006778;28;20083;-76
2023/10/06 04:03:14;;;;;;;6.97;2.95;;;;;;;;;;5030643;28;20038;-76
2023/10/06 04:05:44;;;;;;;9.05;3.00;;;;;;;;;;5015145;28;20519;-76
2023/10/06 04:08:18;;;;;;;6.50;3.08;;;;;;;;;;5016173;28;20025;-76
2023/10/06 04:10:57;;;;;;;13.10;3.00;;;;;;;;;;5013444;28;20522;-76
2023/10/06 04:13:23;;;;;;;5.68;2.90;;;;;;;;;;5010240;28;20584;-76
2023/10/06 04:15:49;;;;;;;6.22;2.83;;;;;;;;;;5011917;28;20052;-76
2023/10/06 04:18:17;;;;;;;7.78;3.53;;;;;;;;;;5015248;28;20056;-76
2023/10/06 04:20:45;;;;;;;5.35;2.83;;;;;;;;;;5014711;28;20037;-76
2023/10/06 04:23:12;;;;;;;7.47;2.92;;;;;;;;;;5009874;28;20397;-76
2023/10/06 04:25:38;;;;;;;7.75;3.13;;;;;;;;;;5011838;28;20732;-76
2023/10/06 04:28:09;;;;;;;7.75;3.22;;;;;;;;;;5013301;28;20037;-76
2023/10/06 04:30:38;;;;;;;8.75;3.83;;;;;;;;;;5015590;28;20097;-76
2023/10/06 04:33:05;;;;;;;10.23;3.60;;;;;;;;;;5021540;28;20042;-76
2023/10/06 04:35:34;;;;;;;8.30;3.28;;;;;;;;;;5015513;28;20065;-76
2023/10/06 04:38:06;;;;;;;7.50;3.03;;;;;;;;;;5017434;28;20017;-76
2023/10/06 04:40:32;;;;;;;7.88;2.92;;;;;;;;;;5021176;28;20110;-76
2023/10/06 04:42:58;;;;;;;13.85;3.00;;;;;;;;;;5015330;28;20033;-76
2023/10/06 04:45:24;;;;;;;8.70;2.97;;;;;;;;;;5015439;28;20034;-76
2023/10/06 04:47:49;;;;;;;8.05;2.97;;;;;;;;;;5016810;28;20034;-76
2023/10/06 04:50:16;;;;;;;9.57;3.78;;;;;;;;;;5018486;28;20079;-76
2023/10/06 04:52:46;;;;;;;8.70;2.80;;;;;;;;;;5017356;28;20038;-76
2023/10/06 04:55:13;;;;;;;12.88;2.88;;;;;;;;;;5018708;28;20124;-76
2023/10/06 04:57:42;;;;;;;9.40;3.05;;;;;;;;;;5033227;28;20048;-76
2023/10/06 05:00:19;;;;;;;6.78;2.83;;;;;;;;;;5013832;28;20582;-76
2023/10/06 05:02:50;;;;;;;9.45;3.03;;;;;;;;;;5014062;28;20034;-76
2023/10/06 05:05:20;;;;;;;8.93;3.25;;;;;;;;;;5018876;28;20080;-76
2023/10/06 05:07:55;;;;;;;6.50;3.17;;;;;;;;;;5016905;28;20032;-76
2023/10/06 05:10:25;;;;;;;12.10;3.50;;;;;;;;;;5016514;28;20065;-76
2023/10/06 05:12:52;;;;;;;5.88;2.92;;;;;;;;;;5028008;28;20581;-75
2023/10/06 05:15:23;;;;;;;6.55;2.90;;;;;;;;;;5031285;28;20642;-76
2023/10/06 05:17:55;;;;;;;10.48;2.85;;;;;;;;;;5014454;28;20041;-76
2023/10/06 05:20:29;;;;;;;7.90;2.92;;;;;;;;;;5014426;28;20542;-76
2023/10/06 05:23:06;;;;;;;8.10;3.35;;;;;;;;;;5015549;28;20153;-76
2023/10/06 05:25:35;;;;;;;7.32;3.28;;;;;;;;;;5016393;28;20048;-76
2023/10/06 05:28:01;;;;;;;7.05;2.80;;;;;;;;;;5014157;28;20038;-76
2023/10/06 05:30:27;;;;;;;10.95;3.47;;;;;;;;;;5014308;28;20045;-76
2023/10/06 05:32:57;;;;;;;8.68;3.30;;;;;;;;;;5017587;28;20515;-76
2023/10/06 05:35:23;;;;;;;9.63;3.97;;;;;;;;;;5017409;28;20256;-76
2023/10/06 05:37:48;;;;;;;9.77;3.58;;;;;;;;;;5014747;28;20037;-76
2023/10/06 05:40:16;;;;;;;9.13;3.22;;;;;;;;;;5014103;28;20060;-76
2023/10/06 05:42:42;;;;;;;7.90;3.42;;;;;;;;;;5014936;28;20049;-76
2023/10/06 05:45:15;;;;;;;11.75;3.38;;;;;;;;;;5013873;28;20179;-76
2023/10/06 05:47:43;;;;;;;8.17;3.40;;;;;;;;;;5013105;28;20041;-76
2023/10/06 05:50:09;;;;;;;6.63;3.70;;;;;;;;;;5012844;28;20291;-76
2023/10/06 05:52:38;;;;;;;10.55;4.20;;;;;;;;;;5012969;28;20054;-76
2023/10/06 05:55:09;;;;;;;10.20;3.67;;;;;;;;;;5008164;28;20038;-76
2023/10/06 05:57:39;;;;;;;7.93;3.75;;;;;;;;;;5012112;28;20044;-74
2023/10/06 06:00:08;;;;;;;15.93;3.60;;;;;;;;;;5015494;28;20042;-75
2023/10/06 06:02:37;;;;;;;9.95;3.85;;;;;;;;;;5013249;28;20033;-75
2023/10/06 06:05:04;;;;;;;6.38;3.60;;;;;;;;;;5012517;28;20075;-75
2023/10/06 06:07:29;;;;;;;8.75;4.05;;;;;;;;;;5013190;28;20094;-75
2023/10/06 06:09:55;;;;;;;9.68;3.85;;;;;;;;;;5013793;28;20042;-75
2023/10/06 06:12:21;;;;;;;7.65;3.83;;;;;;;;;;5017134;28;20045;-75
2023/10/06 06:14:47;;;;;;;13.55;4.40;;;;;;;;;;5015996;28;20065;-75
2023/10/06 06:17:12;;;;;;;9.55;3.53;;;;;;;;;;5011341;28;20060;-75
2023/10/06 06:19:39;;;;;;;12.10;4.43;;;;;;;;;;5013454;28;20459;-75
2023/10/06 06:22:05;;;;;;;10.38;4.07;;;;;;;;;;5013823;28;20030;-75
2023/10/06 06:24:31;;;;;;;13.10;4.22;;;;;;;;;;5011461;28;20056;-76
2023/10/06 06:26:57;;;;;;;13.88;4.43;;;;;;;;;;5016213;28;20037;-75
2023/10/06 06:29:24;;;;;;;8.98;3.30;;;;;;;;;;5032177;28;20032;-75
2023/10/06 06:31:49;;;;;;;9.00;4.15;;;;;;;;;;5016312;28;20549;-75
2023/10/06 06:34:16;;;;;;;8.38;4.03;;;;;;;;;;5014882;28;20046;-75
2023/10/06 06:36:42;;;;;;;12.48;3.60;;;;;;;;;;5024683;28;20033;-75
2023/10/06 06:39:10;;;;;;;12.60;3.97;;;;;;;;;;5034270;28;20029;-76
2023/10/06 06:41:35;;;;;;;11.25;4.18;;;;;;;;;;5015848;28;20033;-75
2023/10/06 06:44:01;;;;;;;7.78;3.75;;;;;;;;;;5007248;28;20056;-75
2023/10/06 06:46:29;;;;;;;8.77;4.40;;;;;;;;;;5009638;28;20034;-75
2023/10/06 06:48:55;;;;;;;12.02;4.10;;;;;;;;;;5014872;28;20052;-75
2023/10/06 06:51:27;;;;;;;8.73;3.63;;;;;;;;;;5015043;28;20095;-75
2023/10/06 06:53:56;;;;;;;12.90;4.45;;;;;;;;;;5009749;28;20049;-75
2023/10/06 06:56:28;;;;;;;12.77;4.50;;;;;;;;;;5007068;28;20116;-75
2023/10/06 06:58:59;;;;;;;10.82;4.00;;;;;;;;;;5014506;28;20022;-75
2023/10/06 07:01:25;;;;;;;11.00;4.38;;;;;;;;;;5006326;28;20064;-75
2023/10/06 07:03:50;;;;;;;12.90;3.95;;;;;;;;;;5009263;28;20704;-75
2023/10/06 07:06:16;;;;;;;8.95;4.00;;;;;;;;;;5015756;28;20798;-75
2023/10/06 07:08:46;;;;;;;9.02;3.92;;;;;;;;;;5007126;28;20052;-75
2023/10/06 07:11:12;;;;;;;9.52;4.10;;;;;;;;;;5014463;28;20819;-75
2023/10/06 07:13:38;;;;;;;12.02;4.40;;;;;;;;;;5015695;28;20907;-74
2023/10/06 07:16:05;;;;;;;7.90;3.40;;;;;;;;;;5008401;28;20076;-75
2023/10/06 07:18:31;;;;;;;10.75;3.97;;;;;;;;;;5013923;28;20103;-75
2023/10/06 07:20:57;;;;;;;12.75;4.25;;;;;;;;;;5008903;28;20040;-75
2023/10/06 07:23:23;;;;;;;9.13;3.75;;;;;;;;;;5008540;28;20017;-75
2023/10/06 07:25:48;;;;;;;8.50;3.60;;;;;;;;;;5011969;28;20025;-74
2023/10/06 07:28:14;;;;;;;18.25;3.90;;;;;;;;;;5009046;28;20077;-75
2023/10/06 07:30:39;;;;;;;16.42;4.30;;;;;;;;;;5006845;28;20423;-74
2023/10/06 07:33:05;;;;;;;9.85;3.58;;;;;;;;;;5013465;28;20037;-75
2023/10/06 07:35:43;;;;;;;11.10;3.80;;;;;;;;;;5016265;28;20041;-75
2023/10/06 07:38:13;;;;;;;11.55;3.65;;;;;;;;;;5012633;28;20014;-74
2023/10/06 07:40:40;;;;;;;9.95;4.20;;;;;;;;;;5014331;28;20049;-75
2023/10/06 07:43:07;;;;;;;11.23;3.85;;;;;;;;;;5014105;28;20049;-75
2023/10/06 07:45:34;;;;;;;12.10;4.30;;;;;;;;;;5009922;28;20233;-75
2023/10/06 07:47:59;;;;;;;12.25;4.25;;;;;;;;;;5017259;28;20345;-75
2023/10/06 07:50:26;;;;;;;14.35;4.43;;;;;;;;;;5012894;28;20403;-75
2023/10/06 07:52:53;;;;;;;11.98;4.53;;;;;;;;;;5014498;28;20067;-74
2023/10/06 07:55:21;;;;;;;12.88;4.13;;;;;;;;;;5013790;28;20052;-75
2023/10/06 07:57:48;;;;;;;11.52;4.38;;;;;;;;;;5020375;28;20040;-75
2023/10/06 08:00:30;;;;;;;11.00;4.20;;;;;;;;;;5027667;28;20033;-74
2023/10/06 08:03:00;;;;;;;13.80;4.40;;;;;;;;;;5023231;28;20037;-75
2023/10/06 08:05:27;;;;;;;13.27;4.25;;;;;;;;;;5015519;28;20060;-75
2023/10/06 08:07:52;;;;;;;10.88;4.30;;;;;;;;;;5018157;28;20065;-74
2023/10/06 08:10:18;;;;;;;13.18;4.10;;;;;;;;;;5013031;28;20069;-74
2023/10/06 08:12:51;;;;;;;11.30;3.70;;;;;;;;;;5014664;28;20215;-75
2023/10/06 08:15:18;;;;;;;9.73;4.30;;;;;;;;;;5016888;28;20530;-75
2023/10/06 08:17:50;;;;;;;12.40;4.18;;;;;;;;;;5015789;28;20038;-74
2023/10/06 08:20:16;;;;;;;14.00;4.43;;;;;;;;;;5011843;28;20049;-74
2023/10/06 08:22:46;;;;;;;15.40;4.18;;;;;;;;;;5014364;28;20018;-74
2023/10/06 08:25:18;;;;;;;10.93;3.83;;;;;;;;;;5015933;28;20125;-74
2023/10/06 08:27:45;;;;;;;9.50;4.18;;;;;;;;;;5015068;28;20718;-74
2023/10/06 08:30:16;;;;;;;11.35;4.07;;;;;;;;;;5013794;28;20088;-74
2023/10/06 08:32:52;;;;;;;11.52;4.25;;;;;;;;;;5012947;28;20470;-74
2023/10/06 08:35:18;;;;;;;11.65;4.22;;;;;;;;;;5020188;28;20029;-75
2023/10/06 08:37:48;;;;;;;8.43;3.50;;;;;;;;;;5016103;28;20111;-74
2023/10/06 08:40:16;;;;;;;9.68;3.78;;;;;;;;;;5013145;28;20158;-75
2023/10/06 08:42:46;;;;;;;9.88;3.75;;;;;;;;;;5014715;28;20045;-74
2023/10/06 08:45:17;;;;;;;10.68;4.20;;;;;;;;;;5012886;28;20049;-75
2023/10/06 08:47:44;;;;;;;8.57;3.78;;;;;;;;;;5013424;28;20047;-75
2023/10/06 08:50:13;;;;;;;10.60;3.50;;;;;;;;;;5017172;28;20056;-74
2023/10/06 08:52:39;;;;;;;10.93;4.63;;;;;;;;;;5015518;28;20129;-74
2023/10/06 08:55:06;;;;;;;12.93;4.68;;;;;;;;;;5014569;28;20151;-75
2023/10/06 08:57:33;;;;;;;9.25;3.90;;;;;;;;;;5020631;28;20033;-74
2023/10/06 08:59:58;;;;;;;10.35;4.03;;;;;;;;;;5013387;28;20057;-74
2023/10/06 09:02:25;;;;;;;10.45;4.43;;;;;;;;;;5012968;28;20026;-75
2023/10/06 09:04:54;;;;;;;11.70;4.05;;;;;;;;;;5014177;28;20025;-75
2023/10/06 09:07:21;;;;;;;9.55;3.95;;;;;;;;;;5016341;28;20099;-74
2023/10/06 09:09:47;;;;;;;8.10;3.90;;;;;;;;;;5013228;28;20743;-75
2023/10/06 09:12:25;;;;;;;10.00;3.95;;;;;;;;;;5013061;28;20459;-74
2023/10/06 09:14:54;;;;;;;11.55;4.25;;;;;;;;;;5013903;28;20038;-74
2023/10/06 09:17:37;;;;;;;6.82;3.42;;;;;;;;;;5019351;28;20103;-74
2023/10/06 09:20:03;;;;;;;;;;;;;;;;;;5018531;28;20032;-74
2023/10/06 09:22:44;;;;;;;10.45;4.28;;;;;;;;;;5019489;28;19921;-73
2023/10/06 09:25:10;;;;;;;7.15;3.90;;;;;;;;;;5025379;28;20044;-74
2023/10/06 09:27:37;;;;;;;10.52;3.58;;;;;;;;;;5018133;28;20069;-74
2023/10/06 09:30:10;;;;;;;7.63;3.55;;;;;;;;;;5014415;28;20076;-74
2023/10/06 09:32:36;;;;;;;10.90;3.85;;;;;;;;;;5022294;28;20059;-73
2023/10/06 09:35:21;;;;;;;11.23;3.65;;;;;;;;;;5014271;28;20861;-74
2023/10/06 09:37:46;;;;;;;7.88;3.72;;;;;;;;;;5014107;28;20144;-74
2023/10/06 09:40:32;;;;;;;9.85;3.60;;;;;;;;;;5013514;28;20133;-74
2023/10/06 09:43:00;;;;;;;9.57;3.92;;;;;;;;;;5011755;28;20422;-74
2023/10/06 09:45:29;;;;;;;12.02;3.97;;;;;;;;;;5013303;28;20030;-75
2023/10/06 09:47:56;;;;;;;8.23;3.33;;;;;;;;;;5012565;28;20076;-74
2023/10/06 09:50:23;;;;;;;7.40;3.72;;;;;;;;;;5015579;28;20049;-74
2023/10/06 09:52:49;;;;;;;10.68;4.15;;;;;;;;;;5015170;28;20419;-75
2023/10/06 09:55:20;;;;;;;9.60;3.60;;;;;;;;;;5014496;28;20049;-75
2023/10/06 09:57:48;;;;;;;9.63;3.72;;;;;;;;;;5021994;28;20041;-75
2023/10/06 10:00:18;;;;;;;7.80;3.58;;;;;;;;;;5014841;28;20030;-74
2023/10/06 10:02:48;;;;;;;8.13;3.70;;;;;;;;;;5015586;28;20044;-75
2023/10/06 10:05:18;;;;;;;10.50;4.18;;;;;;;;;;5011024;28;20025;-74
2023/10/06 10:07:50;;;;;;;6.07;3.53;;;;;;;;;;5012323;28;20049;-75
2023/10/06 10:10:22;;;;;;;9.23;3.53;;;;;;;;;;5014652;28;20057;-74
2023/10/06 10:13:07;;;;;;;8.98;3.58;;;;;;;;;;5005896;28;20418;-75
2023/10/06 10:15:39;;;;;;;10.00;3.65;;;;;;;;;;5010068;28;20054;-74
2023/10/06 10:18:17;;;;;;;7.30;3.08;;;;;;;;;;5010659;28;20270;-76
2023/10/06 10:20:46;;;;;;;10.30;3.75;;;;;;;;;;5013322;28;20048;-75
2023/10/06 10:23:16;;;;;;;10.10;3.45;;;;;;;;;;5013553;28;20033;-76
2023/10/06 10:25:41;;;;;;;8.15;3.97;;;;;;;;;;5010331;28;20034;-74
2023/10/06 10:28:12;;;;;;;7.75;3.28;;;;;;;;;;5014987;28;20092;-75
2023/10/06 10:30:48;;;;;;;7.53;3.28;;;;;;;;;;5012081;28;20047;-75
2023/10/06 10:33:20;;;;;;;9.75;3.45;;;;;;;;;;5008535;28;20042;-76
2023/10/06 10:36:19;;;;;;;9.68;3.50;;;;;;;;;;5011258;28;20045;-76
2023/10/06 10:38:55;;;;;;;6.20;3.10;;;;;;;;;;5032343;28;20176;-75
2023/10/06 10:41:23;;;;;;;8.43;3.42;;;;;;;;;;5014272;28;20045;-75
2023/10/06 10:43:48;;;;;;;6.65;3.65;;;;;;;;;;5022744;28;20029;-75
2023/10/06 10:46:30;;;;;;;6.45;3.58;;;;;;;;;;5022665;28;20038;-74
2023/10/06 10:48:58;;;;;;;7.03;3.10;;;;;;;;;;5028781;28;20048;-75
2023/10/06 10:51:24;;;;;;;9.65;4.18;;;;;;;;;;5024195;28;20065;-75
2023/10/06 10:53:51;;;;;;;8.35;3.30;;;;;;;;;;5017472;28;20123;-75
2023/10/06 10:56:25;;;;;;;8.88;3.22;;;;;;;;;;5011855;28;20956;-76
2023/10/06 10:58:50;;;;;;;6.55;3.03;;;;;;;;;;5009759;28;20483;-74
2023/10/06 11:01:43;;;;;;;6.95;3.35;;;;;;;;;;5016775;28;20061;-76
2023/10/06 11:06:56;;;;;;;10.32;3.47;;;;;;;;;;5012955;28;20052;-75
2023/10/06 11:11:59;;;;;;;10.57;3.42;;;;;;;;;;5011388;28;20064;-75
2023/10/06 11:14:27;;;;;;;9.77;3.55;;;;;;;;;;5008148;28;20504;-75
2023/10/06 11:17:03;;;;;;;11.35;4.13;;;;;;;;;;5012130;28;20247;-75
2023/10/06 11:19:33;;;;;;;5.60;3.30;;;;;;;;;;5013499;28;20041;-75
2023/10/06 11:22:22;;;;;;;8.02;3.45;;;;;;;;;;5010569;28;20053;-75
2023/10/06 11:24:51;;;;;;;14.55;4.00;;;;;;;;;;5011072;28;20713;-76
2023/10/06 11:27:23;;;;;;;7.50;3.40;;;;;;;;;;5012419;28;20144;-76
2023/10/06 11:29:53;;;;;;;9.02;3.35;;;;;;;;;;5011707;28;20068;-76
2023/10/06 11:32:19;;;;;;;10.60;3.70;;;;;;;;;;5008647;28;20040;-78
2023/10/06 11:34:45;;;;;;;8.13;3.17;;;;;;;;;;5009770;28;20065;-77
2023/10/06 11:37:12;;;;;;;12.05;3.40;;;;;;;;;;5028738;28;20034;-78
2023/10/06 11:39:38;;;;;;;9.07;3.15;;;;;;;;;;5008188;28;20506;-76
2023/10/06 11:42:26;;;;;;;6.88;3.10;;;;;;;;;;5010254;28;20046;-76
2023/10/06 11:44:57;;;;;;;16.55;3.10;;;;;;;;;;5011987;28;20042;-77
2023/10/06 11:47:28;;;;;;;6.75;3.45;;;;;;;;;;5011779;28;20944;-79
2023/10/06 11:49:58;;;;;;;13.88;2.70;;;;;;;;;;5013949;28;20037;-77
2023/10/06 11:52:25;;;;;;;6.05;2.80;;;;;;;;;;5008327;28;20053;-78
2023/10/06 11:54:51;;;;;;;8.60;2.88;;;;;;;;;;5017461;28;20050;-76
2023/10/06 11:57:17;;;;;;;8.25;2.80;;;;;;;;;;5009821;28;20061;-78
2023/10/06 11:59:50;;;;;;;6.13;3.10;;;;;;;;;;5006323;28;20618;-76
2023/10/06 12:02:15;;;;;;;6.82;3.22;;;;;;;;;;5011811;28;20041;-76
2023/10/06 12:04:42;;;;;;;8.68;2.83;;;;;;;;;;5012605;28;20037;-76
2023/10/06 12:07:20;;;;;;;8.60;3.22;;;;;;;;;;5009709;28;20045;-77
2023/10/06 12:09:46;;;;;;;7.47;2.97;;;;;;;;;;5017857;28;20061;-76
2023/10/06 12:12:12;;;;;;;10.88;3.80;;;;;;;;;;5017856;28;20034;-77
2023/10/06 12:14:37;;;;;;;9.65;3.45;;;;;;;;;;5016700;28;20326;-77
2023/10/06 12:17:03;;;;;;;9.25;3.40;;;;;;;;;;5010903;28;20049;-76
2023/10/06 12:19:31;;;;;;;11.40;3.53;;;;;;;;;;5007746;28;20049;-75
2023/10/06 12:21:56;;;;;;;8.05;3.00;;;;;;;;;;5015996;28;20195;-75
2023/10/06 12:24:22;;;;;;;10.90;3.08;;;;;;;;;;5012351;28;20188;-75
2023/10/06 12:26:48;;;;;;;6.03;2.75;;;;;;;;;;5026229;28;20427;-75
2023/10/06 12:29:17;;;;;;;7.22;3.33;;;;;;;;;;5008527;28;20613;-75
2023/10/06 12:31:44;;;;;;;8.35;2.97;;;;;;;;;;5009213;28;20506;-76
2023/10/06 12:34:09;;;;;;;6.43;2.65;;;;;;;;;;5012519;28;20556;-75
2023/10/06 12:36:35;;;;;;;5.47;3.10;;;;;;;;;;5012925;28;20045;-75
2023/10/06 12:39:01;;;;;;;14.18;3.42;;;;;;;;;;5011241;28;20519;-75
2023/10/06 12:41:26;;;;;;;8.88;2.58;;;;;;;;;;5009475;28;20041;-76
2023/10/06 12:43:52;;;;;;;9.95;3.28;;;;;;;;;;5010305;28;20077;-74
2023/10/06 12:46:18;;;;;;;7.47;3.20;;;;;;;;;;5009235;28;20097;-75
2023/10/06 12:48:46;;;;;;;10.20;3.28;;;;;;;;;;5010584;28;20049;-75
2023/10/06 12:51:12;;;;;;;8.82;3.20;;;;;;;;;;5013395;28;20137;-75
2023/10/06 12:53:40;;;;;;;8.00;2.90;;;;;;;;;;5019370;28;20051;-75
2023/10/06 12:56:06;;;;;;;9.75;3.28;;;;;;;;;;5009730;28;20066;-74
2023/10/06 12:58:32;;;;;;;6.78;2.97;;;;;;;;;;5014904;28;20045;-75
2023/10/06 13:00:57;;;;;;;8.23;3.05;;;;;;;;;;5015561;28;20033;-75
2023/10/06 13:03:25;;;;;;;7.95;3.10;;;;;;;;;;5014319;28;20060;-76
2023/10/06 13:05:50;;;;;;;10.15;3.65;;;;;;;;;;5014437;28;20045;-75
2023/10/06 13:08:17;;;;;;;6.45;2.42;;;;;;;;;;5011557;28;20041;-75
2023/10/06 13:10:43;;;;;;;6.85;3.05;;;;;;;;;;5013687;28;20488;-75
2023/10/06 13:13:12;;;;;;;7.30;3.08;;;;;;;;;;5016143;28;20043;-75
2023/10/06 13:15:40;;;;;;;8.18;3.28;;;;;;;;;;5013426;28;20033;-75
2023/10/06 13:18:08;;;;;;;10.75;2.63;;;;;;;;;;5013735;28;20041;-75
2023/10/06 13:20:38;;;;;;;10.52;2.95;;;;;;;;;;5012904;28;20069;-75
2023/10/06 13:23:04;;;;;;;7.60;3.00;;;;;;;;;;5017042;28;20091;-76
2023/10/06 13:25:31;;;;;;;9.82;3.22;;;;;;;;;;5016076;28;20526;-76
2023/10/06 13:27:57;;;;;;;9.77;3.20;;;;;;;;;;5013271;28;20581;-76
2023/10/06 13:30:24;;;;;;;8.55;3.00;;;;;;;;;;5014593;28;20045;-76
2023/10/06 13:32:52;;;;;;;11.98;3.15;;;;;;;;;;5020669;28;20042;-76
2023/10/06 13:35:19;;;;;;;7.30;2.85;;;;;;;;;;5029845;28;20040;-75
2023/10/06 13:37:46;;;;;;;8.40;2.88;;;;;;;;;;5026909;28;20030;-75
2023/10/06 13:40:14;;;;;;;7.63;2.78;;;;;;;;;;5019706;28;20531;-75
2023/10/06 13:42:45;;;;;;;6.25;2.80;;;;;;;;;;5037490;28;20041;-75
2023/10/06 13:45:17;;;;;;;6.93;2.88;;;;;;;;;;5015057;28;20033;-75
2023/10/06 13:47:53;;;;;;;10.13;2.90;;;;;;;;;;5013103;28;20610;-74
2023/10/06 13:50:20;;;;;;;7.00;2.55;;;;;;;;;;5009978;28;20029;-75
2023/10/06 13:52:49;;;;;;;4.68;2.35;;;;;;;;;;5014041;28;20494;-75
2023/10/06 13:55:16;;;;;;;6.15;2.80;;;;;;;;;;5015274;28;20033;-74
2023/10/06 13:57:44;;;;;;;6.80;2.78;;;;;;;;;;5012467;28;20534;-75
2023/10/06 14:00:47;;;;;;;8.75;2.78;;;;;;;;;;5011198;28;20068;-75
2023/10/06 14:03:14;;;;;;;8.77;2.70;;;;;;;;;;5009410;28;20041;-75
2023/10/06 14:05:43;;;;;;;7.57;2.92;;;;;;;;;;5003915;28;20172;-75
2023/10/06 14:08:17;;;;;;;9.65;2.70;;;;;;;;;;5015243;28;20127;-75
2023/10/06 14:10:45;;;;;;;8.88;2.50;;;;;;;;;;5013440;28;20562;-75
2023/10/06 14:13:16;;;;;;;4.60;2.13;;;;;;;;;;5014220;28;20681;-74
2023/10/06 14:15:55;;;;;;;8.13;2.47;;;;;;;;;;5010998;28;20042;-74
2023/10/06 14:18:25;;;;;;;4.90;2.40;;;;;;;;;;5010822;28;20049;-75
2023/10/06 14:20:52;;;;;;;8.50;2.50;;;;;;;;;;5027519;28;20041;-75
2023/10/06 14:23:29;;;;;;;7.47;2.47;;;;;;;;;;5014116;28;20079;-75
2023/10/06 14:25:58;;;;;;;6.35;2.63;;;;;;;;;;5016956;28;20026;-75
2023/10/06 14:28:24;;;;;;;6.45;2.65;;;;;;;;;;5014269;28;20041;-75
2023/10/06 14:30:56;;;;;;;11.15;2.60;;;;;;;;;;5027675;28;20918;-74
2023/10/06 14:33:38;;;;;;;5.53;2.55;;;;;;;;;;5008430;28;20067;-75
2023/10/06 14:46:36;;;;;;;6.78;2.67;;;;;;;;;;5012960;28;20044;-74
2023/10/06 14:49:07;;;;;;;8.48;2.70;;;;;;;;;;5030331;28;20550;-74
2023/10/06 14:51:33;;;;;;;12.20;2.92;;;;;;;;;;5012537;28;20041;-74
2023/10/06 14:54:03;;;;;;;10.82;3.65;;;;;;;;;;5014574;28;20099;-73
2023/10/06 14:56:29;;;;;;;6.53;2.60;;;;;;;;;;5022060;28;20036;-74
2023/10/06 14:58:55;;;;;;;6.63;2.78;;;;;;;;;;5044024;28;20104;-74
2023/10/06 15:01:21;;;;;;;8.73;2.50;;;;;;;;;;5027080;28;20493;-75
2023/10/06 15:03:47;;;;;;;6.05;2.15;;;;;;;;;;5011013;28;20037;-75
2023/10/06 15:06:13;;;;;;;4.88;2.50;;;;;;;;;;5014064;28;20103;-75
2023/10/06 15:08:38;;;;;;;9.15;2.50;;;;;;;;;;5008324;28;20088;-75
2023/10/06 15:11:04;;;;;;;8.50;2.75;;;;;;;;;;5026682;28;20033;-75
2023/10/06 15:13:36;;;;;;;8.50;2.40;;;;;;;;;;5015422;28;20095;-74
2023/10/06 15:16:06;;;;;;;5.00;2.47;;;;;;;;;;5012202;28;20033;-75
2023/10/06 15:18:31;;;;;;;7.90;2.92;;;;;;;;;;5013372;28;20037;-75